createdAt,value
2022-08-17T00:02:05.029Z,8.53
2022-08-17T00:05:07.358Z,8.20
2022-08-17T00:07:56.631Z,10.57
2022-08-17T00:10:49.369Z,7.70
2022-08-17T00:13:40.863Z,8.57
2022-08-17T00:16:56.118Z,9.10
2022-08-17T00:19:42.356Z,9.53
2022-08-17T00:22:36.120Z,7.57
2022-08-17T00:25:25.713Z,7.77
2022-08-17T00:28:16.024Z,7.40
2022-08-17T00:31:05.426Z,6.93
2022-08-17T00:33:55.816Z,8.27
2022-08-17T00:36:44.676Z,10.90
2022-08-17T00:39:34.882Z,7.03
2022-08-17T00:42:30.812Z,10.97
2022-08-17T00:45:20.371Z,6.87
2022-08-17T00:48:11.527Z,7.77
2022-08-17T00:51:21.560Z,7.47
2022-08-17T00:54:12.674Z,7.87
2022-08-17T00:57:04.140Z,9.00
2022-08-17T01:00:03.062Z,7.90
2022-08-17T01:02:53.330Z,8.30
2022-08-17T01:05:43.219Z,7.37
2022-08-17T01:08:36.267Z,7.17
2022-08-17T01:11:25.251Z,8.70
2022-08-17T01:14:14.471Z,7.03
2022-08-17T01:17:03.534Z,8.60
2022-08-17T01:19:53.909Z,8.23
2022-08-17T01:22:44.103Z,10.83
2022-08-17T01:25:33.217Z,9.00
2022-08-17T01:28:52.317Z,7.40
2022-08-17T01:31:34.161Z,7.80
2022-08-17T01:34:25.395Z,7.93
2022-08-17T01:37:34.388Z,9.70
2022-08-17T01:40:27.060Z,8.00
2022-08-17T01:43:18.579Z,8.13
2022-08-17T01:46:07.942Z,9.00
2022-08-17T01:48:57.491Z,9.07
2022-08-17T01:51:46.431Z,8.77
2022-08-17T01:54:35.854Z,9.57
2022-08-17T01:57:26.240Z,7.93
2022-08-17T02:00:15.800Z,8.10
2022-08-17T02:03:05.052Z,10.03
2022-08-17T02:05:54.419Z,8.30
2022-08-17T02:09:02.810Z,8.10
2022-08-17T02:11:52.403Z,9.40
2022-08-17T02:14:44.470Z,10.03
2022-08-17T02:17:33.862Z,9.10
2022-08-17T02:20:41.837Z,10.70
2022-08-17T02:23:34.229Z,10.40
2022-08-17T02:26:23.894Z,8.93
2022-08-17T02:29:15.749Z,8.70
2022-08-17T02:32:06.729Z,10.47
2022-08-17T02:34:55.724Z,10.50
2022-08-17T02:37:44.681Z,9.77
2022-08-17T02:40:40.718Z,9.47
2022-08-17T02:43:29.799Z,9.67
2022-08-17T02:46:19.432Z,11.77
2022-08-17T02:49:09.661Z,10.23
2022-08-17T02:51:59.283Z,10.27
2022-08-17T02:54:48.245Z,10.60
2022-08-17T02:57:37.159Z,10.43
2022-08-17T03:00:28.765Z,10.50
2022-08-17T03:03:19.813Z,12.70
2022-08-17T03:06:10.672Z,13.17
2022-08-17T03:08:59.773Z,13.30
2022-08-17T03:11:55.811Z,13.97
2022-08-17T03:14:45.122Z,14.50
2022-08-17T03:17:34.393Z,14.27
2022-08-17T03:20:24.720Z,14.13
2022-08-17T03:23:14.932Z,15.33
2022-08-17T03:26:03.927Z,14.83
2022-08-17T03:29:01.098Z,11.73
2022-08-17T03:31:50.371Z,11.30
2022-08-17T03:34:39.413Z,10.87
2022-08-17T03:37:28.573Z,10.90
2022-08-17T03:40:18.866Z,11.27
2022-08-17T03:43:29.676Z,12.20
2022-08-17T03:46:36.887Z,10.43
2022-08-17T03:49:43.560Z,10.57
2022-08-17T03:52:58.683Z,11.80
2022-08-17T03:56:15.235Z,14.60
2022-08-17T03:59:04.143Z,14.30
2022-08-17T04:01:55.147Z,15.07
2022-08-17T04:04:44.430Z,12.43
2022-08-17T04:07:34.944Z,12.47
2022-08-17T04:10:26.477Z,11.97
2022-08-17T04:13:16.781Z,10.83
2022-08-17T04:16:14.386Z,14.57
2022-08-17T04:19:03.712Z,12.63
2022-08-17T04:21:52.598Z,10.73
2022-08-17T04:24:41.423Z,11.27
2022-08-17T04:27:30.262Z,13.40
2022-08-17T04:30:20.680Z,11.40
2022-08-17T04:33:10.807Z,11.73
2022-08-17T04:36:01.522Z,11.43
2022-08-17T04:38:51.891Z,10.27
2022-08-17T04:41:58.588Z,9.30
2022-08-17T04:44:47.562Z,11.43
2022-08-17T04:47:38.009Z,11.33
2022-08-17T04:50:26.872Z,10.97
2022-08-17T04:53:17.046Z,10.60
2022-08-17T04:56:06.302Z,11.17
2022-08-17T04:58:56.452Z,9.83
2022-08-17T05:01:46.726Z,10.67
2022-08-17T05:04:36.945Z,11.20
2022-08-17T05:07:29.588Z,9.93
2022-08-17T05:10:21.154Z,14.20
2022-08-17T05:13:15.387Z,10.60
2022-08-17T05:16:05.478Z,12.60
2022-08-17T05:18:54.562Z,9.83
2022-08-17T05:21:46.086Z,9.40
2022-08-17T05:24:39.113Z,9.50
2022-08-17T05:27:35.445Z,9.87
2022-08-17T05:30:25.728Z,10.10
2022-08-17T05:33:16.551Z,9.07
2022-08-17T05:36:06.555Z,13.00
2022-08-17T05:38:56.780Z,14.63
2022-08-17T05:41:46.839Z,9.00
2022-08-17T05:44:35.805Z,10.93
2022-08-17T05:47:26.829Z,12.73
2022-08-17T05:50:27.178Z,10.03
2022-08-17T05:53:23.142Z,13.50
2022-08-17T05:56:29.321Z,9.43
2022-08-17T05:59:23.546Z,8.00
2022-08-17T06:02:19.514Z,8.57
2022-08-17T06:05:16.137Z,8.60
2022-08-17T06:08:11.041Z,10.90
2022-08-17T06:11:04.335Z,8.87
2022-08-17T06:14:14.415Z,9.83
2022-08-17T06:17:06.782Z,9.40
2022-08-17T06:19:58.135Z,11.83
2022-08-17T06:22:49.667Z,9.57
2022-08-17T06:25:44.159Z,9.30
2022-08-17T06:28:37.521Z,11.87
2022-08-17T06:31:29.182Z,9.20
2022-08-17T06:34:21.666Z,8.87
2022-08-17T06:37:15.863Z,8.23
2022-08-17T06:40:16.490Z,14.70
2022-08-17T06:43:13.804Z,16.73
2022-08-17T06:46:04.803Z,10.17
2022-08-17T06:48:58.553Z,17.47
2022-08-17T06:51:53.133Z,11.13
2022-08-17T06:54:47.930Z,8.67
2022-08-17T06:57:37.640Z,7.67
2022-08-17T07:00:29.520Z,7.00
2022-08-17T07:03:29.364Z,9.67
2022-08-17T07:06:19.628Z,7.60
2022-08-17T07:09:11.865Z,10.50
2022-08-17T07:12:04.036Z,11.83
2022-08-17T07:14:55.658Z,6.83
2022-08-17T07:17:48.408Z,6.70
2022-08-17T07:20:37.800Z,8.57
2022-08-17T07:23:33.889Z,8.30
2022-08-17T07:26:25.240Z,8.10
2022-08-17T07:29:18.189Z,7.37
2022-08-17T07:32:09.385Z,6.10
2022-08-17T07:35:11.422Z,6.13
2022-08-17T07:38:25.370Z,9.10
2022-08-17T07:41:15.486Z,6.37
2022-08-17T07:44:12.317Z,10.27
2022-08-17T07:47:19.588Z,10.30
2022-08-17T07:50:25.978Z,8.13
2022-08-17T07:53:17.544Z,6.83
2022-08-17T07:56:06.854Z,5.67
2022-08-17T07:59:07.217Z,12.97
2022-08-17T08:02:19.563Z,8.60
2022-08-17T08:05:15.043Z,6.50
2022-08-17T08:08:23.923Z,9.60
2022-08-17T08:11:15.487Z,7.50
2022-08-17T08:14:19.081Z,9.60
2022-08-17T08:17:09.426Z,7.18
2022-08-17T08:20:01.390Z,6.80
2022-08-17T08:23:15.503Z,7.20
2022-08-17T08:26:18.567Z,10.40
2022-08-17T08:29:13.808Z,7.85
2022-08-17T08:32:05.577Z,9.43
2022-08-17T08:35:02.878Z,9.95
2022-08-17T08:37:56.157Z,11.10
2022-08-17T08:40:52.104Z,8.15
2022-08-17T08:43:52.819Z,11.95
2022-08-17T08:46:48.797Z,10.45
2022-08-17T08:50:03.520Z,6.95
2022-08-17T08:53:01.964Z,9.65
2022-08-17T08:55:58.201Z,10.18
2022-08-17T08:58:53.336Z,6.70
2022-08-17T09:01:49.311Z,6.50
2022-08-17T09:05:12.992Z,5.85
2022-08-17T09:08:00.595Z,7.05
2022-08-17T09:11:00.996Z,11.85
2022-08-17T09:13:56.712Z,8.02
2022-08-17T09:16:49.187Z,11.65
2022-08-17T09:19:40.599Z,7.30
2022-08-17T09:22:33.818Z,7.90
2022-08-17T09:25:23.773Z,8.85
2022-08-17T09:28:19.049Z,8.35
2022-08-17T09:31:09.737Z,7.28
2022-08-17T09:34:00.805Z,5.90
2022-08-17T09:36:54.112Z,5.95
2022-08-17T09:39:44.725Z,5.32
2022-08-17T09:42:39.826Z,9.52
2022-08-17T09:45:32.064Z,5.47
2022-08-17T09:48:23.092Z,6.25
2022-08-17T09:51:15.311Z,5.93
2022-08-17T09:54:36.987Z,9.48
2022-08-17T09:57:30.035Z,4.90
2022-08-17T10:00:24.886Z,7.15
2022-08-17T10:03:29.968Z,10.25
2022-08-17T10:06:22.512Z,6.55
2022-08-17T10:09:16.125Z,9.15
2022-08-17T10:12:20.123Z,5.97
2022-08-17T10:15:13.862Z,4.10
2022-08-17T10:18:15.694Z,4.18
2022-08-17T10:21:33.509Z,4.60
2022-08-17T10:24:41.600Z,8.25
2022-08-17T10:27:53.021Z,4.50
2022-08-17T10:30:48.197Z,4.50
2022-08-17T10:33:46.039Z,6.68
2022-08-17T10:36:43.093Z,7.45
2022-08-17T10:39:34.917Z,4.32
2022-08-17T10:42:46.037Z,6.85
2022-08-17T10:45:37.185Z,4.65
2022-08-17T10:48:30.938Z,4.40
2022-08-17T10:51:39.081Z,4.53
2022-08-17T10:54:38.269Z,4.82
2022-08-17T10:57:38.611Z,4.78
2022-08-17T11:00:46.657Z,5.10
2022-08-17T11:03:35.690Z,6.30
2022-08-17T11:06:27.118Z,5.53
2022-08-17T11:09:28.458Z,7.05
2022-08-17T11:12:25.881Z,4.85
2022-08-17T11:15:23.746Z,7.40
2022-08-17T11:18:20.418Z,8.35
2022-08-17T11:21:15.131Z,6.82
2022-08-17T11:24:22.048Z,9.45
2022-08-17T11:27:12.899Z,5.32
2022-08-17T11:30:04.987Z,8.52
2022-08-17T11:32:57.517Z,8.18
2022-08-17T11:35:48.568Z,7.78
2022-08-17T11:38:46.415Z,5.78
2022-08-17T11:41:40.081Z,6.80
2022-08-17T11:44:37.489Z,8.17
2022-08-17T11:48:09.471Z,10.67
2022-08-17T11:51:19.809Z,6.70
2022-08-17T11:54:32.195Z,6.90
2022-08-17T11:57:41.201Z,6.53
2022-08-17T12:00:56.325Z,7.72
2022-08-17T12:03:54.184Z,7.43
2022-08-17T12:06:47.060Z,11.50
2022-08-17T12:09:39.743Z,11.90
2022-08-17T12:12:31.268Z,15.48
2022-08-17T12:15:24.349Z,12.45
2022-08-17T12:18:21.170Z,10.52
2022-08-17T12:21:32.043Z,14.50
2022-08-17T12:24:31.226Z,12.88
2022-08-17T12:28:04.316Z,12.48
2022-08-17T12:30:35.329Z,12.73
2022-08-17T12:33:28.032Z,14.05
2022-08-17T12:36:18.686Z,12.70
2022-08-17T12:39:14.441Z,17.08
2022-08-17T12:42:05.311Z,16.35
2022-08-17T12:44:54.169Z,17.35
2022-08-17T12:47:43.310Z,14.02
2022-08-17T12:50:34.572Z,16.85
2022-08-17T12:53:25.627Z,13.75
2022-08-17T12:56:15.075Z,15.40
2022-08-17T12:59:07.065Z,15.73
2022-08-17T13:01:57.311Z,13.25
2022-08-17T13:04:46.787Z,15.43
2022-08-17T13:07:37.626Z,14.57
2022-08-17T13:10:32.162Z,12.52
2022-08-17T13:13:23.209Z,15.10
2022-08-17T13:16:20.214Z,15.90
2022-08-17T13:19:10.574Z,15.23
2022-08-17T13:22:04.159Z,15.02
2022-08-17T13:24:54.586Z,17.45
2022-08-17T13:27:44.169Z,16.90
2022-08-17T13:30:34.243Z,15.48
2022-08-17T13:33:43.370Z,20.17
2022-08-17T13:36:34.855Z,16.75
2022-08-17T13:39:25.966Z,16.02
2022-08-17T13:42:29.748Z,16.45
2022-08-17T13:45:39.155Z,15.15
2022-08-17T13:48:31.984Z,15.30
2022-08-17T13:51:36.665Z,18.67
2022-08-17T13:54:28.380Z,16.45
2022-08-17T13:57:21.330Z,16.90
2022-08-17T14:00:13.068Z,16.27
2022-08-17T14:03:02.756Z,17.98
2022-08-17T14:05:54.068Z,16.20
2022-08-17T14:08:42.955Z,17.08
2022-08-17T14:11:32.713Z,18.23
2022-08-17T14:14:23.078Z,18.27
2022-08-17T14:17:12.544Z,16.10
2022-08-17T14:20:01.470Z,17.05
2022-08-17T14:22:55.543Z,20.25
2022-08-17T14:25:45.699Z,19.67
2022-08-17T14:28:36.473Z,23.10
2022-08-17T14:31:27.430Z,24.42
2022-08-17T14:34:16.380Z,22.55
2022-08-17T14:37:05.742Z,24.08
2022-08-17T14:39:56.800Z,23.88
2022-08-17T14:42:46.155Z,22.38
2022-08-17T14:45:35.149Z,22.38
2022-08-17T14:48:26.429Z,25.23
2022-08-17T14:51:15.956Z,25.83
2022-08-17T14:54:05.020Z,24.73
2022-08-17T14:57:22.324Z,23.35
2022-08-17T15:00:07.229Z,23.90
2022-08-17T15:02:58.111Z,22.27
2022-08-17T15:05:47.226Z,20.85
2022-08-17T15:08:36.423Z,19.50
2022-08-17T15:11:25.841Z,23.92
2022-08-17T15:14:17.255Z,27.10
2022-08-17T15:17:06.311Z,26.75
2022-08-17T15:19:55.186Z,22.80
2022-08-17T15:22:44.949Z,21.48
2022-08-17T15:25:34.186Z,23.02
2022-08-17T15:28:23.734Z,25.90
2022-08-17T15:31:14.392Z,29.13
2022-08-17T15:34:05.216Z,26.67
2022-08-17T15:36:56.889Z,29.25
2022-08-17T15:39:46.049Z,31.02
2022-08-17T15:42:35.393Z,27.98
2022-08-17T15:45:26.624Z,32.10
2022-08-17T15:48:18.556Z,27.95
2022-08-17T15:51:07.535Z,29.00
2022-08-17T15:53:57.502Z,31.10
2022-08-17T15:56:47.061Z,26.58
2022-08-17T15:59:36.137Z,30.10
2022-08-17T16:03:45.965Z,29.17
2022-08-17T16:05:36.586Z,29.65
2022-08-17T16:08:26.132Z,34.38
2022-08-17T16:11:15.846Z,28.42
2022-08-17T16:14:04.884Z,29.45
2022-08-17T16:16:54.617Z,31.27
2022-08-17T16:19:48.603Z,30.02
2022-08-17T16:22:40.278Z,27.58
2022-08-17T16:25:51.974Z,27.80
2022-08-17T16:28:40.089Z,26.83
2022-08-17T16:31:28.941Z,28.80
2022-08-17T16:34:18.957Z,34.05
2022-08-17T16:37:08.249Z,26.20
2022-08-17T16:40:00.265Z,25.85
2022-08-17T16:42:51.577Z,25.05
2022-08-17T16:45:42.174Z,26.05
2022-08-17T16:48:31.388Z,29.80
2022-08-17T16:51:21.424Z,29.30
2022-08-17T16:54:12.629Z,28.67
2022-08-17T16:57:06.352Z,30.05
2022-08-17T16:59:55.721Z,27.55
2022-08-17T17:02:47.092Z,31.13
2022-08-17T17:05:42.736Z,30.35
2022-08-17T17:08:37.490Z,29.02
2022-08-17T17:11:34.066Z,32.15
2022-08-17T17:14:28.317Z,29.42
2022-08-17T17:17:23.989Z,34.20
2022-08-17T17:20:15.756Z,24.93
2022-08-17T17:23:06.767Z,30.63
2022-08-17T17:26:00.707Z,26.23
2022-08-17T17:28:57.524Z,27.23
2022-08-17T17:31:51.410Z,32.97
2022-08-17T17:34:45.779Z,25.43
2022-08-17T17:37:41.606Z,25.53
2022-08-17T17:40:33.367Z,30.10
2022-08-17T17:43:38.840Z,26.10
2022-08-17T17:46:31.316Z,28.97
2022-08-17T17:49:24.040Z,27.17
2022-08-17T17:52:19.462Z,29.30
2022-08-17T17:55:14.674Z,30.43
2022-08-17T17:58:14.269Z,25.00
2022-08-17T18:01:13.292Z,28.43
2022-08-17T18:04:17.622Z,31.07
2022-08-17T18:07:19.417Z,29.80
2022-08-17T18:10:29.444Z,33.10
2022-08-17T18:13:26.575Z,26.07
2022-08-17T18:16:15.964Z,26.93
2022-08-17T18:19:06.844Z,29.17
2022-08-17T18:21:57.934Z,29.13
2022-08-17T18:24:49.634Z,27.40
2022-08-17T18:27:40.055Z,24.93
2022-08-17T18:30:29.996Z,30.47
2022-08-17T18:33:23.734Z,27.87
2022-08-17T18:36:13.302Z,26.53
2022-08-17T18:39:13.678Z,27.63
2022-08-17T18:42:04.517Z,25.93
2022-08-17T18:44:55.271Z,30.83
2022-08-17T18:47:53.903Z,25.80
2022-08-17T18:50:42.896Z,27.23
2022-08-17T18:53:37.219Z,27.63
2022-08-17T18:56:31.238Z,29.50
2022-08-17T18:59:33.480Z,25.90
2022-08-17T19:02:43.830Z,25.40
2022-08-17T19:05:35.801Z,26.27
2022-08-17T19:08:28.253Z,25.37
2022-08-17T19:11:22.019Z,24.67
2022-08-17T19:14:12.177Z,26.63
2022-08-17T19:17:06.340Z,26.50
2022-08-17T19:19:58.401Z,28.60
2022-08-17T19:22:51.443Z,26.33
2022-08-17T19:25:44.514Z,26.37
2022-08-17T19:28:35.776Z,24.00
2022-08-17T19:31:29.011Z,25.60
2022-08-17T19:34:30.041Z,29.60
2022-08-17T19:37:31.838Z,28.13
2022-08-17T19:40:51.222Z,29.60
2022-08-17T19:43:48.063Z,31.10
2022-08-17T19:46:50.079Z,30.40
2022-08-17T19:49:48.436Z,29.27
2022-08-17T19:52:41.996Z,28.27
2022-08-17T19:55:33.589Z,33.23
2022-08-17T19:58:27.610Z,28.70
2022-08-17T20:01:21.227Z,29.70
2022-08-17T20:04:15.302Z,30.47
2022-08-17T20:07:09.187Z,30.80
2022-08-17T20:10:03.316Z,32.80
2022-08-17T20:12:53.556Z,28.43
2022-08-17T20:15:43.988Z,30.57
2022-08-17T20:18:36.669Z,30.20
2022-08-17T20:21:28.816Z,36.53
2022-08-17T20:24:21.193Z,30.30
2022-08-17T20:27:14.608Z,31.60
2022-08-17T20:30:06.856Z,29.23
2022-08-17T20:32:57.102Z,30.43
2022-08-17T20:36:02.128Z,31.63
2022-08-17T20:38:52.801Z,29.63
2022-08-17T20:42:04.502Z,37.03
2022-08-17T20:44:54.626Z,31.53
2022-08-17T20:48:07.456Z,36.00
2022-08-17T20:51:00.582Z,33.83
2022-08-17T20:54:27.167Z,32.57
2022-08-17T20:57:35.069Z,35.37
2022-08-17T21:00:42.543Z,33.87
2022-08-17T21:03:51.886Z,37.37
2022-08-17T21:06:55.954Z,30.67
2022-08-17T21:09:45.741Z,34.50
2022-08-17T21:12:42.497Z,31.03
2022-08-17T21:15:37.536Z,33.40
2022-08-17T21:18:31.726Z,34.80
2022-08-17T21:21:25.047Z,33.30
2022-08-17T21:24:20.471Z,33.43
2022-08-17T21:27:20.037Z,35.43
2022-08-17T21:30:16.799Z,35.37
2022-08-17T21:33:23.725Z,48.27
2022-08-17T21:36:27.826Z,37.77
2022-08-17T21:39:17.739Z,39.90
2022-08-17T21:42:13.576Z,38.67
2022-08-17T21:45:09.723Z,40.20
2022-08-17T21:48:11.005Z,43.10
2022-08-17T21:51:03.630Z,38.47
2022-08-17T21:53:56.410Z,38.13
2022-08-17T21:56:47.905Z,35.90
2022-08-17T21:59:39.878Z,37.13
2022-08-17T22:02:32.636Z,42.30
2022-08-17T22:05:28.752Z,40.73
2022-08-17T22:08:20.334Z,38.40
2022-08-17T22:11:10.800Z,39.57
2022-08-17T22:14:05.246Z,47.10
2022-08-17T22:17:17.047Z,37.33
2022-08-17T22:20:08.346Z,43.90
2022-08-17T22:23:21.828Z,45.13
2022-08-17T22:26:13.775Z,45.60
2022-08-17T22:29:03.936Z,42.67
2022-08-17T22:31:56.154Z,42.73
2022-08-17T22:34:45.146Z,48.50
2022-08-17T22:37:35.100Z,42.77
2022-08-17T22:40:28.917Z,45.97
2022-08-17T22:43:26.144Z,49.60
2022-08-17T22:46:15.924Z,46.23
2022-08-17T22:49:04.796Z,49.27
2022-08-17T22:52:00.953Z,47.00
2022-08-17T22:55:09.377Z,44.63
2022-08-17T22:58:28.202Z,49.57
2022-08-17T23:01:28.666Z,56.53
2022-08-17T23:04:32.633Z,45.70
2022-08-17T23:07:22.198Z,44.63
2022-08-17T23:10:12.807Z,50.87
2022-08-17T23:13:02.118Z,51.50
2022-08-17T23:15:51.590Z,51.47
2022-08-17T23:18:41.990Z,46.67
2022-08-17T23:21:30.993Z,48.23
2022-08-17T23:24:26.844Z,47.97
2022-08-17T23:27:16.185Z,50.73
2022-08-17T23:30:05.379Z,49.37
2022-08-17T23:32:55.756Z,48.50
2022-08-17T23:35:47.113Z,54.23
2022-08-17T23:38:36.126Z,48.27
2022-08-17T23:41:26.826Z,66.53
2022-08-17T23:44:16.331Z,57.40
2022-08-17T23:47:07.697Z,45.13
2022-08-17T23:49:56.951Z,53.90
2022-08-17T23:52:53.484Z,48.50
2022-08-17T23:55:42.563Z,64.60
2022-08-17T23:58:32.010Z,47.40
